Weather at Frankfurt-Hahn Airport

Public forecast

Using degrees Celsius for public forecast. Weather courtesy of forecast.io.

Current aviation weather report (METAR) for Frankfurt-Hahn Airport

Retrieved 2021/01/21 14:20 UTC (0 seconds ago):

EDFH 211420Z 22013KT 190V250 9999 FEW020 05/02 Q0996

Aviation forecast (TAF) for Frankfurt-Hahn Airport

Forecast is more than 6 hours old.

Retrieved 2021/01/21 06:27 UTC (8 hours ago):

TAF EDFH 210500Z 2106/2206 20020G35KT CAVOK PROB40 TEMPO 2106/2110 22030G45KT RA BKN010 BECMG 2110/2112 21015G30KT BECMG 2118/2121 21020G35KT TEMPO 2118/2124 21025G40KT SHRA BKN010 BKN020TCU TEMPO 2201/2206 RA BKN012